createdAt,value
2023-04-07T00:01:38.848Z,99754.00
2023-04-07T00:04:06.931Z,99758.00
2023-04-07T00:06:34.965Z,99762.00
2023-04-07T00:09:03.107Z,99750.00
2023-04-07T00:11:30.963Z,99753.00
2023-04-07T00:13:58.874Z,99749.00
2023-04-07T00:16:28.098Z,99750.00
2023-04-07T00:18:56.065Z,99740.00
2023-04-07T00:21:24.216Z,99747.00
2023-04-07T00:23:53.641Z,99753.00
2023-04-07T00:26:21.783Z,99749.00
2023-04-07T00:28:50.374Z,99738.00
2023-04-07T00:31:18.484Z,99742.00
2023-04-07T00:33:49.449Z,99742.00
2023-04-07T00:36:17.385Z,99745.00
2023-04-07T00:38:45.342Z,99745.00
2023-04-07T00:41:13.299Z,99737.00
2023-04-07T00:43:41.237Z,99740.00
2023-04-07T00:46:09.250Z,99732.00
2023-04-07T00:48:38.399Z,99732.00
2023-04-07T00:51:08.309Z,99729.00
2023-04-07T00:53:36.350Z,99723.00
2023-04-07T00:56:04.598Z,99726.00
2023-04-07T00:58:32.512Z,99718.00
2023-04-07T01:01:10.406Z,99707.00
2023-04-07T01:03:47.771Z,99717.00
2023-04-07T01:06:26.017Z,99712.00
2023-04-07T01:09:03.915Z,99707.00
2023-04-07T01:11:41.896Z,99711.00
2023-04-07T01:14:12.345Z,99701.00
2023-04-07T01:16:51.976Z,99711.00
2023-04-07T01:19:37.510Z,99709.00
2023-04-07T01:22:13.856Z,99705.00
2023-04-07T01:25:03.888Z,99703.00
2023-04-07T01:27:44.597Z,99698.00
2023-04-07T01:30:16.966Z,99703.00
2023-04-07T01:32:52.882Z,99702.00
2023-04-07T01:35:24.345Z,99697.00
2023-04-07T01:37:53.851Z,99692.00
2023-04-07T01:40:23.724Z,99692.00
2023-04-07T01:42:52.692Z,99692.00
2023-04-07T01:45:23.382Z,99696.00
2023-04-07T01:47:52.631Z,99687.00
2023-04-07T01:50:22.614Z,99691.00
2023-04-07T01:52:50.894Z,99676.00
2023-04-07T01:55:18.845Z,99680.00
2023-04-07T01:57:58.843Z,99676.00
2023-04-07T02:00:28.195Z,99680.00
2023-04-07T02:03:06.521Z,99682.00
2023-04-07T02:05:38.681Z,99677.00
2023-04-07T02:08:11.973Z,99671.00
2023-04-07T02:10:41.017Z,99674.00
2023-04-07T02:13:16.689Z,99671.00
2023-04-07T02:15:47.856Z,99672.00
2023-04-07T02:18:21.577Z,99666.00
2023-04-07T02:20:51.654Z,99663.00
2023-04-07T02:23:19.595Z,99670.00
2023-04-07T02:25:47.604Z,99666.00
2023-04-07T02:28:15.496Z,99661.00
2023-04-07T02:30:45.712Z,99668.00
2023-04-07T02:33:13.598Z,99665.00
2023-04-07T02:35:44.492Z,99666.00
2023-04-07T02:38:12.401Z,99663.00
2023-04-07T02:40:40.436Z,99664.00
2023-04-07T02:43:08.366Z,99663.00
2023-04-07T02:45:36.320Z,99662.00
2023-04-07T02:48:07.063Z,99656.00
2023-04-07T02:50:35.023Z,99658.00
2023-04-07T02:53:02.901Z,99652.00
2023-04-07T02:55:30.877Z,99654.00
2023-04-07T02:57:58.818Z,99652.00
2023-04-07T03:00:45.868Z,99651.00
2023-04-07T03:03:19.211Z,99651.00
2023-04-07T03:06:01.882Z,99655.00
2023-04-07T03:08:30.497Z,99647.00
2023-04-07T03:10:58.413Z,99650.00
2023-04-07T03:13:30.907Z,99653.00
2023-04-07T03:15:58.936Z,99650.00
2023-04-07T03:18:32.712Z,99642.00
2023-04-07T03:21:02.294Z,99646.00
2023-04-07T03:23:30.262Z,99648.00
2023-04-07T03:26:00.287Z,99660.00
2023-04-07T03:28:32.438Z,99643.00
2023-04-07T03:31:01.155Z,99642.00
2023-04-07T03:33:29.047Z,99644.00
2023-04-07T03:35:58.289Z,99654.00
2023-04-07T03:38:27.560Z,99651.00
2023-04-07T03:40:59.056Z,99649.00
2023-04-07T03:43:27.267Z,99647.00
2023-04-07T03:45:55.583Z,99645.00
2023-04-07T03:48:25.793Z,99644.00
2023-04-07T03:51:07.494Z,99646.00
2023-04-07T03:53:36.064Z,99643.00
2023-04-07T03:56:14.940Z,99643.00
2023-04-07T03:58:49.332Z,99649.00
2023-04-07T04:01:28.028Z,99648.00
2023-04-07T04:03:58.069Z,99644.00
2023-04-07T04:06:32.631Z,99645.00
2023-04-07T04:09:09.120Z,99645.00
2023-04-07T04:11:40.953Z,99643.00
2023-04-07T04:14:08.958Z,99647.00
2023-04-07T04:16:38.178Z,99644.00
2023-04-07T04:19:13.689Z,99647.00
2023-04-07T04:21:42.974Z,99632.00
2023-04-07T04:24:11.526Z,99643.00
2023-04-07T04:26:40.022Z,99641.00
2023-04-07T04:29:12.809Z,99635.00
2023-04-07T04:31:43.211Z,99652.00
2023-04-07T04:34:12.127Z,99651.00
2023-04-07T04:36:42.147Z,99648.00
2023-04-07T04:39:10.461Z,99651.00
2023-04-07T04:41:39.709Z,99640.00
2023-04-07T04:44:08.520Z,99637.00
2023-04-07T04:46:37.032Z,99638.00
2023-04-07T04:49:05.161Z,99643.00
2023-04-07T04:51:33.118Z,99641.00
2023-04-07T04:54:08.745Z,99633.00
2023-04-07T04:56:37.571Z,99645.00
2023-04-07T04:59:06.402Z,99648.00
2023-04-07T05:01:46.834Z,99627.00
2023-04-07T05:04:18.009Z,99648.00
2023-04-07T05:06:52.482Z,99638.00
2023-04-07T05:09:25.103Z,99655.00
2023-04-07T05:11:53.652Z,99652.00
2023-04-07T05:14:22.442Z,99637.00
2023-04-07T05:16:59.836Z,99646.00
2023-04-07T05:19:29.869Z,99652.00
2023-04-07T05:22:04.322Z,99650.00
2023-04-07T05:24:39.141Z,99644.00
2023-04-07T05:27:07.100Z,99650.00
2023-04-07T05:29:35.579Z,99648.00
2023-04-07T05:32:06.434Z,99646.00
2023-04-07T05:34:34.464Z,99656.00
2023-04-07T05:37:02.507Z,99633.00
2023-04-07T05:39:30.802Z,99645.00
2023-04-07T05:42:01.605Z,99641.00
2023-04-07T05:44:30.061Z,99634.00
2023-04-07T05:46:58.295Z,99652.00
2023-04-07T05:49:28.056Z,99651.00
2023-04-07T05:52:06.447Z,99648.00
2023-04-07T05:54:40.842Z,99647.00
2023-04-07T05:57:10.580Z,99648.00
2023-04-07T05:59:43.737Z,99655.00
2023-04-07T06:02:12.610Z,99659.00
2023-04-07T06:04:41.482Z,99650.00
2023-04-07T06:07:12.455Z,99653.00
2023-04-07T06:09:44.074Z,99653.00
2023-04-07T06:12:13.469Z,99658.00
2023-04-07T06:14:41.516Z,99643.00
2023-04-07T06:17:09.613Z,99649.00
2023-04-07T06:19:37.942Z,99647.00
2023-04-07T06:22:05.843Z,99652.00
2023-04-07T06:24:33.800Z,99652.00
2023-04-07T06:27:02.696Z,99660.00
2023-04-07T06:29:33.961Z,99642.00
2023-04-07T06:32:05.073Z,99641.00
2023-04-07T06:34:32.981Z,99634.00
2023-04-07T06:37:01.574Z,99642.00
2023-04-07T06:39:31.059Z,99638.00
2023-04-07T06:41:58.929Z,99628.00
2023-04-07T06:44:26.927Z,99638.00
2023-04-07T06:46:56.430Z,99638.00
2023-04-07T06:49:24.724Z,99645.00
2023-04-07T06:54:20.546Z,99639.00
2023-04-07T06:56:48.434Z,99643.00
2023-04-07T06:59:16.631Z,99644.00
2023-04-07T07:01:45.454Z,99644.00
2023-04-07T07:04:14.885Z,99642.00
2023-04-07T07:06:42.838Z,99647.00
2023-04-07T07:09:10.772Z,99636.00
2023-04-07T07:11:40.214Z,99647.00
2023-04-07T07:14:08.047Z,99643.00
2023-04-07T07:16:37.229Z,99646.00
2023-04-07T07:19:05.289Z,99647.00
2023-04-07T07:21:34.468Z,99638.00
2023-04-07T07:24:02.459Z,99642.00
2023-04-07T07:26:30.395Z,99646.00
2023-04-07T07:28:58.308Z,99644.00
2023-04-07T07:31:26.252Z,99650.00
2023-04-07T07:33:54.190Z,99643.00
2023-04-07T07:36:22.136Z,99641.00
2023-04-07T07:38:52.252Z,99661.00
2023-04-07T07:41:21.115Z,99657.00
2023-04-07T07:43:49.360Z,99670.00
2023-04-07T07:46:17.504Z,99658.00
2023-04-07T07:48:46.554Z,99661.00
2023-04-07T07:51:14.508Z,99664.00
2023-04-07T07:53:42.407Z,99663.00
2023-04-07T07:56:11.753Z,99662.00
2023-04-07T07:58:39.914Z,99658.00
2023-04-07T08:01:08.084Z,99666.00
2023-04-07T08:03:36.330Z,99670.00
2023-04-07T08:06:04.542Z,99673.00
2023-04-07T08:08:32.458Z,99673.00
2023-04-07T08:11:00.612Z,99676.00
2023-04-07T08:13:30.118Z,99683.00
2023-04-07T08:15:58.096Z,99681.00
2023-04-07T08:18:26.254Z,99681.00
2023-04-07T08:20:54.117Z,99672.00
2023-04-07T08:23:22.052Z,99676.00
2023-04-07T08:25:49.937Z,99677.00
2023-04-07T08:28:17.858Z,99675.00
2023-04-07T08:30:47.090Z,99687.00
2023-04-07T08:33:15.016Z,99687.00
2023-04-07T08:35:42.903Z,99677.00
2023-04-07T08:38:10.915Z,99688.00
2023-04-07T08:40:38.898Z,99692.00
2023-04-07T08:43:10.990Z,99684.00
2023-04-07T08:45:42.744Z,99687.00
2023-04-07T08:48:18.934Z,99687.00
2023-04-07T08:50:47.312Z,99685.00
2023-04-07T08:53:20.452Z,99694.00
2023-04-07T08:55:48.524Z,99685.00
2023-04-07T08:58:17.888Z,99687.00
2023-04-07T09:00:49.160Z,99683.00
2023-04-07T09:03:20.339Z,99675.00
2023-04-07T09:05:51.240Z,99687.00
2023-04-07T09:08:19.242Z,99678.00
2023-04-07T09:10:47.211Z,99680.00
2023-04-07T09:13:15.108Z,99687.00
2023-04-07T09:15:43.216Z,99677.00
2023-04-07T09:18:11.180Z,99675.00
2023-04-07T09:21:01.626Z,99677.00
2023-04-07T09:23:32.628Z,99681.00
2023-04-07T09:26:02.113Z,99682.00
2023-04-07T09:28:47.347Z,99677.00
2023-04-07T09:31:16.035Z,99687.00
2023-04-07T09:33:44.109Z,99689.00
2023-04-07T09:36:13.367Z,99682.00
2023-04-07T09:38:42.965Z,99688.00
2023-04-07T09:41:13.087Z,99668.00
2023-04-07T09:43:44.690Z,99674.00
2023-04-07T09:46:15.860Z,99668.00
2023-04-07T09:48:45.880Z,99674.00
2023-04-07T09:51:18.315Z,99666.00
2023-04-07T09:53:49.955Z,99662.00
2023-04-07T09:56:22.263Z,99667.00
2023-04-07T09:58:53.056Z,99661.00
2023-04-07T10:01:23.193Z,99664.00
2023-04-07T10:03:52.923Z,99662.00
2023-04-07T10:06:23.269Z,99667.00
2023-04-07T10:08:51.523Z,99666.00
2023-04-07T10:11:19.644Z,99666.00
2023-04-07T10:13:47.934Z,99661.00
2023-04-07T10:16:16.595Z,99666.00
2023-04-07T10:18:45.286Z,99666.00
2023-04-07T10:21:15.510Z,99666.00
2023-04-07T10:23:59.048Z,99661.00
2023-04-07T10:26:33.187Z,99657.00
2023-04-07T10:29:09.485Z,99675.00
2023-04-07T10:31:39.227Z,99669.00
2023-04-07T10:34:07.371Z,99673.00
2023-04-07T10:36:35.528Z,99678.00
2023-04-07T10:39:24.081Z,99668.00
2023-04-07T10:41:53.247Z,99670.00
2023-04-07T10:44:58.426Z,99678.00
2023-04-07T10:47:26.399Z,99682.00
2023-04-07T10:50:20.878Z,99670.00
2023-04-07T10:52:50.511Z,99676.00
2023-04-07T10:55:37.541Z,99681.00
2023-04-07T10:58:16.549Z,99684.00
2023-04-07T11:01:17.606Z,99687.00
2023-04-07T11:04:00.013Z,99671.00
2023-04-07T11:06:28.546Z,99689.00
2023-04-07T11:08:56.904Z,99686.00
2023-04-07T11:11:42.419Z,99676.00
2023-04-07T11:14:10.491Z,99684.00
2023-04-07T11:16:42.479Z,99677.00
2023-04-07T11:19:11.202Z,99670.00
2023-04-07T11:21:39.181Z,99665.00
2023-04-07T11:24:07.338Z,99674.00
2023-04-07T11:26:43.643Z,99676.00
2023-04-07T11:29:13.372Z,99667.00
2023-04-07T11:31:41.532Z,99676.00
2023-04-07T11:34:09.588Z,99667.00
2023-04-07T11:36:41.500Z,99686.00
2023-04-07T11:39:21.606Z,99677.00
2023-04-07T11:41:52.117Z,99676.00
2023-04-07T11:44:20.492Z,99677.00
2023-04-07T11:46:55.979Z,99672.00
2023-04-07T11:49:26.516Z,99676.00
2023-04-07T11:52:01.117Z,99678.00
2023-04-07T11:54:29.396Z,99682.00
2023-04-07T11:56:58.633Z,99673.00
2023-04-07T11:59:28.682Z,99669.00
2023-04-07T12:01:58.086Z,99674.00
2023-04-07T12:04:26.700Z,99670.00
2023-04-07T12:06:54.754Z,99667.00
2023-04-07T12:09:32.327Z,99669.00
2023-04-07T12:12:01.992Z,99673.00
2023-04-07T12:14:30.067Z,99663.00
2023-04-07T12:16:58.854Z,99673.00
2023-04-07T12:19:28.758Z,99660.00
2023-04-07T12:21:57.173Z,99659.00
2023-04-07T12:24:25.355Z,99664.00
2023-04-07T12:26:53.501Z,99673.00
2023-04-07T12:29:23.017Z,99672.00
2023-04-07T12:31:51.432Z,99662.00
2023-04-07T12:34:20.035Z,99663.00
2023-04-07T12:36:48.223Z,99673.00
2023-04-07T12:39:17.504Z,99671.00
2023-04-07T12:41:47.543Z,99674.00
2023-04-07T12:44:17.308Z,99669.00
2023-04-07T12:46:46.874Z,99675.00
2023-04-07T12:49:14.786Z,99673.00
2023-04-07T12:51:42.673Z,99679.00
2023-04-07T12:54:10.820Z,99664.00
2023-04-07T12:56:40.264Z,99673.00
2023-04-07T12:59:08.530Z,99666.00
2023-04-07T13:01:37.276Z,99670.00
2023-04-07T13:04:06.932Z,99662.00
2023-04-07T13:06:34.915Z,99668.00
2023-04-07T13:09:02.840Z,99666.00
2023-04-07T13:11:30.814Z,99663.00
2023-04-07T13:14:01.124Z,99670.00
2023-04-07T13:16:29.758Z,99669.00
2023-04-07T13:18:58.268Z,99663.00
2023-04-07T13:21:45.516Z,99656.00
2023-04-07T13:24:15.086Z,99660.00
2023-04-07T13:26:43.147Z,99661.00
2023-04-07T13:29:11.055Z,99659.00
2023-04-07T13:31:38.934Z,99650.00
2023-04-07T13:34:06.863Z,99656.00
2023-04-07T13:36:36.051Z,99664.00
2023-04-07T13:39:04.714Z,99656.00
2023-04-07T13:41:38.756Z,99651.00
2023-04-07T13:44:06.739Z,99647.00
2023-04-07T13:46:34.729Z,99651.00
2023-04-07T13:49:02.729Z,99646.00
2023-04-07T13:51:30.687Z,99656.00
2023-04-07T13:54:00.237Z,99646.00
2023-04-07T13:56:28.454Z,99643.00
2023-04-07T13:58:56.488Z,99643.00
2023-04-07T14:01:24.435Z,99641.00
2023-04-07T14:03:53.684Z,99632.00
2023-04-07T14:06:22.895Z,99628.00
2023-04-07T14:08:51.216Z,99628.00
2023-04-07T14:11:21.937Z,99620.00
2023-04-07T14:13:51.425Z,99627.00
2023-04-07T14:16:19.645Z,99606.00
2023-04-07T14:18:49.371Z,99618.00
2023-04-07T14:21:17.272Z,99623.00
2023-04-07T14:23:45.216Z,99615.00
2023-04-07T14:26:13.810Z,99617.00
2023-04-07T14:28:43.019Z,99619.00
2023-04-07T14:31:15.107Z,99621.00
2023-04-07T14:33:43.554Z,99621.00
2023-04-07T14:36:11.673Z,99617.00
2023-04-07T14:38:39.635Z,99612.00
2023-04-07T14:41:10.118Z,99624.00
2023-04-07T14:43:38.871Z,99631.00
2023-04-07T14:46:08.298Z,99638.00
2023-04-07T14:48:36.247Z,99633.00
2023-04-07T14:51:09.759Z,99628.00
2023-04-07T14:53:38.078Z,99632.00
2023-04-07T14:56:06.384Z,99633.00
2023-04-07T14:58:37.333Z,99637.00
2023-04-07T15:01:06.972Z,99635.00
2023-04-07T15:03:36.678Z,99630.00
2023-04-07T15:06:09.851Z,99625.00
2023-04-07T15:08:38.117Z,99634.00
2023-04-07T15:11:06.610Z,99627.00
2023-04-07T15:13:35.137Z,99633.00
2023-04-07T15:16:12.397Z,99631.00
2023-04-07T15:18:44.472Z,99635.00
2023-04-07T15:21:14.377Z,99628.00
2023-04-07T15:23:42.615Z,99634.00
2023-04-07T15:26:11.335Z,99635.00
2023-04-07T15:28:40.249Z,99643.00
2023-04-07T15:31:08.932Z,99633.00
2023-04-07T15:33:37.595Z,99637.00
2023-04-07T15:36:08.615Z,99640.00
2023-04-07T15:38:38.735Z,99633.00
2023-04-07T15:41:06.767Z,99622.00
2023-04-07T15:43:35.402Z,99633.00
2023-04-07T15:46:03.418Z,99631.00
2023-04-07T15:48:31.436Z,99632.00
2023-04-07T15:50:59.355Z,99632.00
2023-04-07T15:53:28.703Z,99638.00
2023-04-07T15:55:56.675Z,99627.00
2023-04-07T15:58:24.591Z,99639.00
2023-04-07T16:00:52.901Z,99650.00
2023-04-07T16:03:21.047Z,99649.00
2023-04-07T16:05:51.014Z,99656.00
2023-04-07T16:08:19.016Z,99647.00
2023-04-07T16:10:48.419Z,99654.00
2023-04-07T16:13:16.407Z,99653.00
2023-04-07T16:15:44.321Z,99659.00
2023-04-07T16:18:12.965Z,99663.00
2023-04-07T16:20:41.108Z,99670.00
2023-04-07T16:23:09.899Z,99664.00
2023-04-07T16:25:37.810Z,99669.00
2023-04-07T16:28:07.224Z,99671.00
2023-04-07T16:30:36.105Z,99665.00
2023-04-07T16:33:04.030Z,99669.00
2023-04-07T16:35:32.169Z,99673.00
2023-04-07T16:38:03.927Z,99662.00
2023-04-07T16:40:32.100Z,99675.00
2023-04-07T16:43:00.069Z,99656.00
2023-04-07T16:45:29.775Z,99677.00
2023-04-07T16:47:57.716Z,99673.00
2023-04-07T16:50:25.696Z,99678.00
2023-04-07T16:52:54.845Z,99686.00
2023-04-07T16:55:23.128Z,99692.00
2023-04-07T16:57:51.224Z,99685.00
2023-04-07T17:00:20.152Z,99686.00
2023-04-07T17:02:50.159Z,99690.00
2023-04-07T17:05:18.455Z,99704.00
2023-04-07T17:07:46.338Z,99704.00
2023-04-07T17:10:14.993Z,99711.00
2023-04-07T17:12:42.958Z,99720.00
2023-04-07T17:15:11.853Z,99723.00
2023-04-07T17:17:39.945Z,99726.00
2023-04-07T17:20:10.802Z,99732.00
2023-04-07T17:22:38.923Z,99730.00
2023-04-07T17:25:08.016Z,99731.00
2023-04-07T17:27:36.063Z,99739.00
2023-04-07T17:30:05.292Z,99735.00
2023-04-07T17:32:33.506Z,99738.00
2023-04-07T17:35:01.573Z,99749.00
2023-04-07T17:37:30.910Z,99759.00
2023-04-07T17:40:00.224Z,99753.00
2023-04-07T17:42:28.793Z,99759.00
2023-04-07T17:44:58.002Z,99756.00
2023-04-07T17:47:26.107Z,99752.00
2023-04-07T17:49:54.007Z,99775.00
2023-04-07T17:52:22.345Z,99773.00
2023-04-07T17:54:51.835Z,99772.00
2023-04-07T17:57:20.204Z,99775.00
2023-04-07T17:59:48.694Z,99781.00
2023-04-07T18:02:17.176Z,99776.00
2023-04-07T18:04:45.661Z,99782.00
2023-04-07T18:07:14.843Z,99773.00
2023-04-07T18:09:44.806Z,99797.00
2023-04-07T18:12:14.456Z,99788.00
2023-04-07T18:14:43.109Z,99788.00
2023-04-07T18:17:11.332Z,99791.00
2023-04-07T18:19:39.302Z,99799.00
2023-04-07T18:22:07.276Z,99806.00
2023-04-07T18:24:35.207Z,99810.00
2023-04-07T18:27:03.977Z,99809.00
2023-04-07T18:29:33.385Z,99821.00
2023-04-07T18:32:01.353Z,99820.00
2023-04-07T18:34:29.351Z,99819.00
2023-04-07T18:36:57.315Z,99826.00
2023-04-07T18:39:27.893Z,99829.00
2023-04-07T18:41:57.739Z,99832.00
2023-04-07T18:44:26.053Z,99827.00
2023-04-07T18:46:55.791Z,99827.00
2023-04-07T18:49:24.539Z,99830.00
2023-04-07T18:51:53.482Z,99835.00
2023-04-07T18:54:21.923Z,99839.00
2023-04-07T18:56:49.787Z,99839.00
2023-04-07T18:59:17.737Z,99840.00
2023-04-07T19:01:46.155Z,99838.00
2023-04-07T19:04:16.388Z,99839.00
2023-04-07T19:06:44.492Z,99845.00
2023-04-07T19:09:12.426Z,99840.00
2023-04-07T19:11:41.544Z,99843.00
2023-04-07T19:14:09.612Z,99848.00
2023-04-07T19:16:37.830Z,99850.00
2023-04-07T19:19:06.064Z,99841.00
2023-04-07T19:21:35.407Z,99851.00
2023-04-07T19:24:03.295Z,99848.00
2023-04-07T19:26:31.544Z,99853.00
2023-04-07T19:28:59.523Z,99856.00
2023-04-07T19:31:27.488Z,99858.00
2023-04-07T19:33:55.502Z,99853.00
2023-04-07T19:36:23.590Z,99860.00
2023-04-07T19:38:52.852Z,99857.00
2023-04-07T19:41:21.159Z,99860.00
2023-04-07T19:43:49.671Z,99874.00
2023-04-07T19:46:17.788Z,99866.00
2023-04-07T19:48:46.163Z,99870.00
2023-04-07T19:51:14.096Z,99874.00
2023-04-07T19:53:42.081Z,99869.00
2023-04-07T19:56:13.831Z,99873.00
2023-04-07T19:58:41.820Z,99873.00
2023-04-07T20:01:17.768Z,99875.00
2023-04-07T20:03:46.814Z,99878.00
2023-04-07T20:06:15.311Z,99875.00
2023-04-07T20:08:43.294Z,99881.00
2023-04-07T20:11:13.389Z,99879.00
2023-04-07T20:13:43.435Z,99885.00
2023-04-07T20:16:11.400Z,99894.00
2023-04-07T20:18:39.341Z,99884.00
2023-04-07T20:21:07.367Z,99876.00
2023-04-07T20:23:35.378Z,99882.00
2023-04-07T20:26:03.447Z,99877.00
2023-04-07T20:28:33.585Z,99877.00
2023-04-07T20:31:01.966Z,99876.00
2023-04-07T20:33:30.012Z,99878.00
2023-04-07T20:35:57.943Z,99876.00
2023-04-07T20:38:26.104Z,99875.00
2023-04-07T20:40:54.186Z,99874.00
2023-04-07T20:43:23.609Z,99872.00
2023-04-07T20:45:53.322Z,99874.00
2023-04-07T20:48:23.782Z,99872.00
2023-04-07T20:50:52.684Z,99876.00
2023-04-07T20:53:20.891Z,99884.00
2023-04-07T20:55:49.304Z,99880.00
2023-04-07T20:58:18.482Z,99875.00
2023-04-07T21:00:46.753Z,99878.00
2023-04-07T21:03:16.412Z,99874.00
2023-04-07T21:05:45.717Z,99876.00
2023-04-07T21:08:14.687Z,99877.00
2023-04-07T21:10:42.842Z,99873.00
2023-04-07T21:13:10.703Z,99868.00
2023-04-07T21:15:38.626Z,99872.00
2023-04-07T21:18:06.661Z,99871.00
2023-04-07T21:20:37.125Z,99868.00
2023-04-07T21:23:05.927Z,99864.00
2023-04-07T21:25:33.864Z,99861.00
2023-04-07T21:28:01.782Z,99860.00
2023-04-07T21:30:29.817Z,99868.00
2023-04-07T21:32:57.870Z,99875.00
2023-04-07T21:35:28.146Z,99869.00
2023-04-07T21:37:57.497Z,99853.00
2023-04-07T21:40:25.389Z,99859.00
2023-04-07T21:42:53.270Z,99871.00
2023-04-07T21:45:21.143Z,99862.00
2023-04-07T21:47:49.050Z,99854.00
2023-04-07T21:50:17.191Z,99852.00
2023-04-07T21:52:45.315Z,99865.00
2023-04-07T21:55:14.805Z,99866.00
2023-04-07T21:57:42.712Z,99861.00
2023-04-07T22:00:12.893Z,99855.00
2023-04-07T22:02:45.221Z,99848.00
2023-04-07T22:05:13.627Z,99858.00
2023-04-07T22:07:41.509Z,99851.00
2023-04-07T22:10:10.649Z,99856.00
2023-04-07T22:12:39.916Z,99860.00
2023-04-07T22:15:09.619Z,99856.00
2023-04-07T22:17:39.805Z,99850.00
2023-04-07T22:20:10.148Z,99856.00
2023-04-07T22:22:38.076Z,99865.00
2023-04-07T22:25:07.636Z,99858.00
2023-04-07T22:27:36.190Z,99866.00
2023-04-07T22:30:09.790Z,99862.00
2023-04-07T22:32:38.078Z,99857.00
2023-04-07T22:35:06.802Z,99861.00
2023-04-07T22:37:34.676Z,99864.00
2023-04-07T22:40:03.657Z,99865.00
2023-04-07T22:42:31.670Z,99859.00
2023-04-07T22:44:59.539Z,99863.00
2023-04-07T22:47:28.818Z,99866.00
2023-04-07T22:49:56.688Z,99866.00
2023-04-07T22:52:24.607Z,99864.00
2023-04-07T22:54:52.519Z,99863.00
2023-04-07T22:57:20.461Z,99867.00
2023-04-07T22:59:48.341Z,99872.00
2023-04-07T23:02:16.331Z,99862.00
2023-04-07T23:04:45.836Z,99870.00
2023-04-07T23:07:13.862Z,99870.00
2023-04-07T23:09:41.805Z,99875.00
2023-04-07T23:12:09.852Z,99864.00
2023-04-07T23:14:37.705Z,99872.00
2023-04-07T23:17:05.778Z,99875.00
2023-04-07T23:19:33.676Z,99880.00
2023-04-07T23:22:02.903Z,99882.00
2023-04-07T23:24:30.881Z,99875.00
2023-04-07T23:26:58.748Z,99878.00
2023-04-07T23:29:27.171Z,99879.00
2023-04-07T23:31:55.072Z,99877.00
2023-04-07T23:34:22.920Z,99872.00
2023-04-07T23:36:50.804Z,99876.00
2023-04-07T23:39:20.051Z,99877.00
2023-04-07T23:41:48.191Z,99868.00
2023-04-07T23:44:16.362Z,99887.00
2023-04-07T23:46:44.234Z,99871.00
2023-04-07T23:49:12.125Z,99876.00
2023-04-07T23:51:40.424Z,99872.00
2023-04-07T23:54:08.435Z,99870.00
2023-04-07T23:56:37.802Z,99873.00
2023-04-07T23:59:05.782Z,99873.00
